sensor_id;sensor_type;location;lat;lon;timestamp;P1;durP1;ratioP1;P2;durP2;ratioP2
73980;SDS011;62348;51.412;5.436;2023-11-19T00:01:25;15.65;;;7.38;;
73980;SDS011;62348;51.412;5.436;2023-11-19T00:03:51;14.90;;;7.35;;
73980;SDS011;62348;51.412;5.436;2023-11-19T00:06:16;10.10;;;7.18;;
73980;SDS011;62348;51.412;5.436;2023-11-19T00:08:42;14.05;;;6.88;;
73980;SDS011;62348;51.412;5.436;2023-11-19T00:11:08;11.10;;;6.63;;
73980;SDS011;62348;51.412;5.436;2023-11-19T00:13:34;16.65;;;6.63;;
73980;SDS011;62348;51.412;5.436;2023-11-19T00:15:59;8.57;;;5.47;;
73980;SDS011;62348;51.412;5.436;2023-11-19T00:18:25;10.15;;;5.70;;
73980;SDS011;62348;51.412;5.436;2023-11-19T00:20:50;12.50;;;5.82;;
73980;SDS011;62348;51.412;5.436;2023-11-19T00:23:16;11.27;;;5.50;;
73980;SDS011;62348;51.412;5.436;2023-11-19T00:25:41;10.23;;;5.25;;
73980;SDS011;62348;51.412;5.436;2023-11-19T00:28:06;12.52;;;5.38;;
73980;SDS011;62348;51.412;5.436;2023-11-19T00:30:32;9.68;;;5.60;;
73980;SDS011;62348;51.412;5.436;2023-11-19T00:32:57;9.45;;;4.50;;
73980;SDS011;62348;51.412;5.436;2023-11-19T00:35:23;9.23;;;4.68;;
73980;SDS011;62348;51.412;5.436;2023-11-19T00:37:48;10.68;;;4.65;;
73980;SDS011;62348;51.412;5.436;2023-11-19T00:40:14;9.10;;;4.35;;
73980;SDS011;62348;51.412;5.436;2023-11-19T00:42:42;7.93;;;4.38;;
73980;SDS011;62348;51.412;5.436;2023-11-19T00:45:08;11.05;;;3.85;;
73980;SDS011;62348;51.412;5.436;2023-11-19T00:47:35;7.68;;;3.80;;
73980;SDS011;62348;51.412;5.436;2023-11-19T00:50:01;10.07;;;4.57;;
73980;SDS011;62348;51.412;5.436;2023-11-19T00:52:27;5.88;;;3.50;;
73980;SDS011;62348;51.412;5.436;2023-11-19T00:54:52;8.40;;;3.80;;
73980;SDS011;62348;51.412;5.436;2023-11-19T00:57:18;10.65;;;4.72;;
73980;SDS011;62348;51.412;5.436;2023-11-19T00:59:44;13.65;;;4.35;;
73980;SDS011;62348;51.412;5.436;2023-11-19T01:02:09;13.05;;;5.07;;
73980;SDS011;62348;51.412;5.436;2023-11-19T01:04:35;11.20;;;4.38;;
73980;SDS011;62348;51.412;5.436;2023-11-19T01:07:04;14.32;;;4.63;;
73980;SDS011;62348;51.412;5.436;2023-11-19T01:09:31;12.82;;;4.95;;
73980;SDS011;62348;51.412;5.436;2023-11-19T01:12:00;16.88;;;5.45;;
73980;SDS011;62348;51.412;5.436;2023-11-19T01:14:27;13.60;;;4.50;;
73980;SDS011;62348;51.412;5.436;2023-11-19T01:16:53;15.20;;;4.55;;
73980;SDS011;62348;51.412;5.436;2023-11-19T01:19:21;18.42;;;5.70;;
73980;SDS011;62348;51.412;5.436;2023-11-19T01:21:48;18.58;;;5.20;;
73980;SDS011;62348;51.412;5.436;2023-11-19T01:24:14;16.38;;;5.18;;
73980;SDS011;62348;51.412;5.436;2023-11-19T01:26:40;16.75;;;4.18;;
73980;SDS011;62348;51.412;5.436;2023-11-19T01:29:16;27.20;;;5.18;;
73980;SDS011;62348;51.412;5.436;2023-11-19T01:31:42;15.07;;;4.70;;
73980;SDS011;62348;51.412;5.436;2023-11-19T01:34:08;15.52;;;4.68;;
73980;SDS011;62348;51.412;5.436;2023-11-19T01:36:34;20.63;;;5.32;;
73980;SDS011;62348;51.412;5.436;2023-11-19T01:38:59;16.65;;;4.63;;
73980;SDS011;62348;51.412;5.436;2023-11-19T01:41:25;15.25;;;5.18;;
73980;SDS011;62348;51.412;5.436;2023-11-19T01:43:50;18.92;;;4.20;;
73980;SDS011;62348;51.412;5.436;2023-11-19T01:46:16;16.85;;;4.97;;
73980;SDS011;62348;51.412;5.436;2023-11-19T01:48:42;19.45;;;5.05;;
73980;SDS011;62348;51.412;5.436;2023-11-19T01:51:10;17.75;;;4.93;;
73980;SDS011;62348;51.412;5.436;2023-11-19T01:53:37;16.63;;;4.25;;
73980;SDS011;62348;51.412;5.436;2023-11-19T01:56:04;21.02;;;4.32;;
73980;SDS011;62348;51.412;5.436;2023-11-19T01:58:34;11.95;;;3.80;;
73980;SDS011;62348;51.412;5.436;2023-11-19T02:01:00;15.80;;;4.30;;
73980;SDS011;62348;51.412;5.436;2023-11-19T02:03:28;17.83;;;4.43;;
73980;SDS011;62348;51.412;5.436;2023-11-19T02:06:02;18.77;;;3.92;;
73980;SDS011;62348;51.412;5.436;2023-11-19T02:08:28;16.77;;;4.60;;
73980;SDS011;62348;51.412;5.436;2023-11-19T02:10:54;12.27;;;4.90;;
73980;SDS011;62348;51.412;5.436;2023-11-19T02:13:23;12.05;;;4.25;;
73980;SDS011;62348;51.412;5.436;2023-11-19T02:15:50;16.75;;;4.30;;
73980;SDS011;62348;51.412;5.436;2023-11-19T02:18:22;12.18;;;3.60;;
73980;SDS011;62348;51.412;5.436;2023-11-19T02:20:52;13.18;;;4.18;;
73980;SDS011;62348;51.412;5.436;2023-11-19T02:23:21;14.75;;;3.83;;
73980;SDS011;62348;51.412;5.436;2023-11-19T02:25:51;15.95;;;4.90;;
73980;SDS011;62348;51.412;5.436;2023-11-19T02:28:35;21.23;;;5.20;;
73980;SDS011;62348;51.412;5.436;2023-11-19T02:31:02;28.33;;;5.38;;
73980;SDS011;62348;51.412;5.436;2023-11-19T02:33:29;23.33;;;5.72;;
73980;SDS011;62348;51.412;5.436;2023-11-19T02:35:55;25.63;;;5.50;;
73980;SDS011;62348;51.412;5.436;2023-11-19T02:38:21;19.13;;;5.45;;
73980;SDS011;62348;51.412;5.436;2023-11-19T02:40:47;28.70;;;6.95;;
73980;SDS011;62348;51.412;5.436;2023-11-19T02:43:12;28.30;;;5.28;;
73980;SDS011;62348;51.412;5.436;2023-11-19T02:45:38;32.90;;;6.75;;
73980;SDS011;62348;51.412;5.436;2023-11-19T02:48:04;30.42;;;6.15;;
73980;SDS011;62348;51.412;5.436;2023-11-19T02:50:31;25.70;;;5.40;;
73980;SDS011;62348;51.412;5.436;2023-11-19T02:52:57;30.58;;;5.55;;
73980;SDS011;62348;51.412;5.436;2023-11-19T02:55:22;32.35;;;5.57;;
73980;SDS011;62348;51.412;5.436;2023-11-19T02:57:49;30.77;;;5.10;;
73980;SDS011;62348;51.412;5.436;2023-11-19T03:00:15;26.75;;;5.28;;
73980;SDS011;62348;51.412;5.436;2023-11-19T03:02:42;31.70;;;4.93;;
73980;SDS011;62348;51.412;5.436;2023-11-19T03:05:23;28.95;;;6.18;;
73980;SDS011;62348;51.412;5.436;2023-11-19T03:07:50;35.30;;;6.15;;
73980;SDS011;62348;51.412;5.436;2023-11-19T03:10:15;26.88;;;5.55;;
73980;SDS011;62348;51.412;5.436;2023-11-19T03:12:41;34.70;;;5.30;;
73980;SDS011;62348;51.412;5.436;2023-11-19T03:15:07;33.42;;;5.78;;
73980;SDS011;62348;51.412;5.436;2023-11-19T03:17:39;25.10;;;5.50;;
73980;SDS011;62348;51.412;5.436;2023-11-19T03:20:05;22.38;;;4.82;;
73980;SDS011;62348;51.412;5.436;2023-11-19T03:22:34;36.28;;;8.02;;
73980;SDS011;62348;51.412;5.436;2023-11-19T03:25:01;33.63;;;6.28;;
73980;SDS011;62348;51.412;5.436;2023-11-19T03:27:27;26.45;;;5.43;;
73980;SDS011;62348;51.412;5.436;2023-11-19T03:29:52;30.52;;;5.95;;
73980;SDS011;62348;51.412;5.436;2023-11-19T03:32:17;36.58;;;6.05;;
73980;SDS011;62348;51.412;5.436;2023-11-19T03:34:43;37.72;;;6.07;;
73980;SDS011;62348;51.412;5.436;2023-11-19T03:37:08;28.85;;;6.55;;
73980;SDS011;62348;51.412;5.436;2023-11-19T03:39:34;30.20;;;5.60;;
73980;SDS011;62348;51.412;5.436;2023-11-19T03:41:59;33.20;;;6.43;;
73980;SDS011;62348;51.412;5.436;2023-11-19T03:44:25;29.17;;;5.60;;
73980;SDS011;62348;51.412;5.436;2023-11-19T03:46:52;36.20;;;7.43;;
73980;SDS011;62348;51.412;5.436;2023-11-19T03:49:17;36.67;;;6.55;;
73980;SDS011;62348;51.412;5.436;2023-11-19T03:51:43;32.00;;;6.22;;
73980;SDS011;62348;51.412;5.436;2023-11-19T03:54:08;32.70;;;6.15;;
73980;SDS011;62348;51.412;5.436;2023-11-19T03:56:33;37.60;;;7.03;;
73980;SDS011;62348;51.412;5.436;2023-11-19T03:58:59;34.22;;;5.50;;
73980;SDS011;62348;51.412;5.436;2023-11-19T04:01:24;39.97;;;6.22;;
73980;SDS011;62348;51.412;5.436;2023-11-19T04:03:50;36.35;;;6.90;;
73980;SDS011;62348;51.412;5.436;2023-11-19T04:06:15;37.33;;;7.20;;
73980;SDS011;62348;51.412;5.436;2023-11-19T04:08:41;35.67;;;6.85;;
73980;SDS011;62348;51.412;5.436;2023-11-19T04:11:06;27.92;;;6.22;;
73980;SDS011;62348;51.412;5.436;2023-11-19T04:13:33;33.55;;;5.53;;
73980;SDS011;62348;51.412;5.436;2023-11-19T04:15:59;31.17;;;5.72;;
73980;SDS011;62348;51.412;5.436;2023-11-19T04:18:25;26.92;;;5.68;;
73980;SDS011;62348;51.412;5.436;2023-11-19T04:20:50;33.70;;;6.18;;
73980;SDS011;62348;51.412;5.436;2023-11-19T04:23:16;33.22;;;6.65;;
73980;SDS011;62348;51.412;5.436;2023-11-19T04:25:41;40.17;;;5.60;;
73980;SDS011;62348;51.412;5.436;2023-11-19T04:28:07;39.88;;;6.90;;
73980;SDS011;62348;51.412;5.436;2023-11-19T04:30:33;37.20;;;6.63;;
73980;SDS011;62348;51.412;5.436;2023-11-19T04:32:58;37.42;;;6.63;;
73980;SDS011;62348;51.412;5.436;2023-11-19T04:35:24;35.92;;;6.57;;
73980;SDS011;62348;51.412;5.436;2023-11-19T04:37:51;34.60;;;6.47;;
73980;SDS011;62348;51.412;5.436;2023-11-19T04:40:16;30.80;;;6.22;;
73980;SDS011;62348;51.412;5.436;2023-11-19T04:42:43;34.80;;;6.07;;
73980;SDS011;62348;51.412;5.436;2023-11-19T04:45:09;38.05;;;7.10;;
73980;SDS011;62348;51.412;5.436;2023-11-19T04:47:35;28.75;;;6.07;;
73980;SDS011;62348;51.412;5.436;2023-11-19T04:50:01;32.10;;;6.68;;
73980;SDS011;62348;51.412;5.436;2023-11-19T04:52:27;26.20;;;5.75;;
73980;SDS011;62348;51.412;5.436;2023-11-19T04:54:53;30.02;;;6.45;;
73980;SDS011;62348;51.412;5.436;2023-11-19T04:57:18;27.73;;;5.82;;
73980;SDS011;62348;51.412;5.436;2023-11-19T04:59:43;30.55;;;6.88;;
73980;SDS011;62348;51.412;5.436;2023-11-19T05:02:09;34.20;;;7.07;;
73980;SDS011;62348;51.412;5.436;2023-11-19T05:04:34;33.55;;;6.43;;
73980;SDS011;62348;51.412;5.436;2023-11-19T05:07:00;29.52;;;6.15;;
73980;SDS011;62348;51.412;5.436;2023-11-19T05:09:26;28.85;;;5.60;;
73980;SDS011;62348;51.412;5.436;2023-11-19T05:11:51;31.65;;;6.28;;
73980;SDS011;62348;51.412;5.436;2023-11-19T05:14:17;31.05;;;6.88;;
73980;SDS011;62348;51.412;5.436;2023-11-19T05:16:44;40.08;;;6.57;;
73980;SDS011;62348;51.412;5.436;2023-11-19T05:19:10;35.13;;;6.43;;
73980;SDS011;62348;51.412;5.436;2023-11-19T05:21:35;31.35;;;6.15;;
73980;SDS011;62348;51.412;5.436;2023-11-19T05:24:01;28.83;;;7.05;;
73980;SDS011;62348;51.412;5.436;2023-11-19T05:26:29;33.05;;;6.43;;
73980;SDS011;62348;51.412;5.436;2023-11-19T05:28:55;38.35;;;6.95;;
73980;SDS011;62348;51.412;5.436;2023-11-19T05:31:21;34.05;;;7.22;;
73980;SDS011;62348;51.412;5.436;2023-11-19T05:33:46;42.58;;;6.85;;
73980;SDS011;62348;51.412;5.436;2023-11-19T05:36:12;32.72;;;6.15;;
73980;SDS011;62348;51.412;5.436;2023-11-19T05:38:38;32.53;;;6.18;;
73980;SDS011;62348;51.412;5.436;2023-11-19T05:41:03;34.17;;;5.50;;
73980;SDS011;62348;51.412;5.436;2023-11-19T05:43:30;29.27;;;5.63;;
73980;SDS011;62348;51.412;5.436;2023-11-19T05:45:56;28.95;;;6.57;;
73980;SDS011;62348;51.412;5.436;2023-11-19T05:48:21;34.95;;;6.07;;
73980;SDS011;62348;51.412;5.436;2023-11-19T05:50:47;34.42;;;7.38;;
73980;SDS011;62348;51.412;5.436;2023-11-19T05:53:14;34.40;;;5.97;;
73980;SDS011;62348;51.412;5.436;2023-11-19T05:55:40;38.83;;;6.57;;
73980;SDS011;62348;51.412;5.436;2023-11-19T05:58:14;35.35;;;6.63;;
73980;SDS011;62348;51.412;5.436;2023-11-19T06:00:40;40.47;;;6.60;;
73980;SDS011;62348;51.412;5.436;2023-11-19T06:03:09;36.45;;;6.75;;
73980;SDS011;62348;51.412;5.436;2023-11-19T06:05:34;26.98;;;5.40;;
73980;SDS011;62348;51.412;5.436;2023-11-19T06:08:00;39.45;;;6.38;;
73980;SDS011;62348;51.412;5.436;2023-11-19T06:10:25;30.25;;;6.88;;
73980;SDS011;62348;51.412;5.436;2023-11-19T06:12:56;31.05;;;5.82;;
73980;SDS011;62348;51.412;5.436;2023-11-19T06:15:25;32.25;;;6.63;;
73980;SDS011;62348;51.412;5.436;2023-11-19T06:17:52;30.02;;;5.80;;
73980;SDS011;62348;51.412;5.436;2023-11-19T06:20:17;26.45;;;5.10;;
73980;SDS011;62348;51.412;5.436;2023-11-19T06:22:44;36.78;;;6.65;;
73980;SDS011;62348;51.412;5.436;2023-11-19T06:25:10;33.28;;;7.50;;
73980;SDS011;62348;51.412;5.436;2023-11-19T06:27:36;35.85;;;6.63;;
73980;SDS011;62348;51.412;5.436;2023-11-19T06:30:02;37.97;;;7.20;;
73980;SDS011;62348;51.412;5.436;2023-11-19T06:32:27;35.33;;;6.10;;
73980;SDS011;62348;51.412;5.436;2023-11-19T06:34:54;36.22;;;7.28;;
73980;SDS011;62348;51.412;5.436;2023-11-19T06:37:19;34.95;;;7.22;;
73980;SDS011;62348;51.412;5.436;2023-11-19T06:39:45;31.45;;;6.38;;
73980;SDS011;62348;51.412;5.436;2023-11-19T06:42:10;25.85;;;5.63;;
73980;SDS011;62348;51.412;5.436;2023-11-19T06:44:36;31.25;;;6.05;;
73980;SDS011;62348;51.412;5.436;2023-11-19T06:47:01;35.70;;;6.25;;
73980;SDS011;62348;51.412;5.436;2023-11-19T06:49:26;33.17;;;6.38;;
73980;SDS011;62348;51.412;5.436;2023-11-19T06:51:52;38.40;;;6.15;;
73980;SDS011;62348;51.412;5.436;2023-11-19T06:54:17;23.70;;;5.43;;
73980;SDS011;62348;51.412;5.436;2023-11-19T06:56:43;35.90;;;6.63;;
73980;SDS011;62348;51.412;5.436;2023-11-19T06:59:08;32.05;;;5.97;;
73980;SDS011;62348;51.412;5.436;2023-11-19T07:01:34;25.40;;;5.18;;
73980;SDS011;62348;51.412;5.436;2023-11-19T07:04:01;33.00;;;6.20;;
73980;SDS011;62348;51.412;5.436;2023-11-19T07:06:33;32.13;;;5.03;;
73980;SDS011;62348;51.412;5.436;2023-11-19T07:08:58;35.85;;;6.70;;
73980;SDS011;62348;51.412;5.436;2023-11-19T07:11:24;40.03;;;6.70;;
73980;SDS011;62348;51.412;5.436;2023-11-19T07:13:49;31.42;;;6.50;;
73980;SDS011;62348;51.412;5.436;2023-11-19T07:16:15;30.33;;;5.85;;
73980;SDS011;62348;51.412;5.436;2023-11-19T07:18:40;32.25;;;6.25;;
73980;SDS011;62348;51.412;5.436;2023-11-19T07:21:08;34.63;;;6.57;;
73980;SDS011;62348;51.412;5.436;2023-11-19T07:23:35;31.75;;;5.90;;
73980;SDS011;62348;51.412;5.436;2023-11-19T07:26:01;29.15;;;6.32;;
73980;SDS011;62348;51.412;5.436;2023-11-19T07:28:26;37.35;;;7.78;;
73980;SDS011;62348;51.412;5.436;2023-11-19T07:30:53;36.85;;;6.10;;
73980;SDS011;62348;51.412;5.436;2023-11-19T07:33:21;41.88;;;7.10;;
73980;SDS011;62348;51.412;5.436;2023-11-19T07:35:46;29.52;;;5.90;;
73980;SDS011;62348;51.412;5.436;2023-11-19T07:38:12;34.97;;;5.70;;
73980;SDS011;62348;51.412;5.436;2023-11-19T07:40:37;39.70;;;6.75;;
73980;SDS011;62348;51.412;5.436;2023-11-19T07:43:03;28.98;;;6.47;;
73980;SDS011;62348;51.412;5.436;2023-11-19T07:45:28;27.08;;;5.70;;
73980;SDS011;62348;51.412;5.436;2023-11-19T07:47:54;37.40;;;6.43;;
73980;SDS011;62348;51.412;5.436;2023-11-19T07:50:19;38.33;;;6.25;;
73980;SDS011;62348;51.412;5.436;2023-11-19T07:52:45;38.92;;;7.47;;
73980;SDS011;62348;51.412;5.436;2023-11-19T07:55:10;34.90;;;6.50;;
73980;SDS011;62348;51.412;5.436;2023-11-19T07:57:36;31.45;;;7.57;;
73980;SDS011;62348;51.412;5.436;2023-11-19T08:00:02;37.58;;;6.53;;
73980;SDS011;62348;51.412;5.436;2023-11-19T08:02:29;31.55;;;6.28;;
73980;SDS011;62348;51.412;5.436;2023-11-19T08:04:54;26.85;;;6.35;;
73980;SDS011;62348;51.412;5.436;2023-11-19T08:07:20;30.60;;;6.60;;
73980;SDS011;62348;51.412;5.436;2023-11-19T08:09:46;33.40;;;6.32;;
73980;SDS011;62348;51.412;5.436;2023-11-19T08:12:12;33.85;;;7.15;;
73980;SDS011;62348;51.412;5.436;2023-11-19T08:14:39;31.23;;;7.43;;
73980;SDS011;62348;51.412;5.436;2023-11-19T08:17:05;27.35;;;5.32;;
73980;SDS011;62348;51.412;5.436;2023-11-19T08:19:30;30.25;;;5.43;;
73980;SDS011;62348;51.412;5.436;2023-11-19T08:21:56;28.75;;;5.68;;
73980;SDS011;62348;51.412;5.436;2023-11-19T08:24:21;28.40;;;5.85;;
73980;SDS011;62348;51.412;5.436;2023-11-19T08:26:47;34.35;;;6.25;;
73980;SDS011;62348;51.412;5.436;2023-11-19T08:29:13;39.10;;;8.23;;
73980;SDS011;62348;51.412;5.436;2023-11-19T08:31:39;30.67;;;6.53;;
73980;SDS011;62348;51.412;5.436;2023-11-19T08:34:04;38.97;;;6.95;;
73980;SDS011;62348;51.412;5.436;2023-11-19T08:36:33;35.70;;;6.95;;
73980;SDS011;62348;51.412;5.436;2023-11-19T08:38:59;31.92;;;6.18;;
73980;SDS011;62348;51.412;5.436;2023-11-19T08:41:24;37.03;;;7.10;;
73980;SDS011;62348;51.412;5.436;2023-11-19T08:43:50;33.17;;;7.32;;
73980;SDS011;62348;51.412;5.436;2023-11-19T08:46:16;43.05;;;6.95;;
73980;SDS011;62348;51.412;5.436;2023-11-19T08:48:42;28.88;;;5.82;;
73980;SDS011;62348;51.412;5.436;2023-11-19T08:51:07;33.33;;;5.35;;
73980;SDS011;62348;51.412;5.436;2023-11-19T08:53:33;32.10;;;7.28;;
73980;SDS011;62348;51.412;5.436;2023-11-19T08:55:59;30.33;;;5.55;;
73980;SDS011;62348;51.412;5.436;2023-11-19T08:58:25;34.33;;;7.32;;
73980;SDS011;62348;51.412;5.436;2023-11-19T09:00:51;32.60;;;7.07;;
73980;SDS011;62348;51.412;5.436;2023-11-19T09:03:16;38.47;;;6.60;;
73980;SDS011;62348;51.412;5.436;2023-11-19T09:05:41;34.47;;;6.97;;
73980;SDS011;62348;51.412;5.436;2023-11-19T09:08:07;30.23;;;6.20;;
73980;SDS011;62348;51.412;5.436;2023-11-19T09:10:33;39.00;;;7.15;;
73980;SDS011;62348;51.412;5.436;2023-11-19T09:12:58;33.28;;;6.85;;
73980;SDS011;62348;51.412;5.436;2023-11-19T09:15:24;33.53;;;6.78;;
73980;SDS011;62348;51.412;5.436;2023-11-19T09:17:50;33.75;;;6.90;;
73980;SDS011;62348;51.412;5.436;2023-11-19T09:20:16;32.33;;;7.15;;
73980;SDS011;62348;51.412;5.436;2023-11-19T09:22:41;42.08;;;6.57;;
73980;SDS011;62348;51.412;5.436;2023-11-19T09:25:07;32.28;;;7.05;;
73980;SDS011;62348;51.412;5.436;2023-11-19T09:27:33;27.42;;;5.95;;
73980;SDS011;62348;51.412;5.436;2023-11-19T09:29:58;37.63;;;6.55;;
73980;SDS011;62348;51.412;5.436;2023-11-19T09:32:24;31.33;;;7.22;;
73980;SDS011;62348;51.412;5.436;2023-11-19T09:34:50;35.97;;;7.10;;
73980;SDS011;62348;51.412;5.436;2023-11-19T09:37:16;37.95;;;7.30;;
73980;SDS011;62348;51.412;5.436;2023-11-19T09:39:41;34.72;;;6.30;;
73980;SDS011;62348;51.412;5.436;2023-11-19T09:42:11;39.22;;;6.18;;
73980;SDS011;62348;51.412;5.436;2023-11-19T09:44:37;31.15;;;5.35;;
73980;SDS011;62348;51.412;5.436;2023-11-19T09:47:05;32.65;;;7.18;;
73980;SDS011;62348;51.412;5.436;2023-11-19T09:49:32;33.13;;;6.30;;
73980;SDS011;62348;51.412;5.436;2023-11-19T09:51:58;31.48;;;6.57;;
73980;SDS011;62348;51.412;5.436;2023-11-19T09:54:23;45.17;;;7.00;;
73980;SDS011;62348;51.412;5.436;2023-11-19T09:56:49;22.25;;;5.88;;
73980;SDS011;62348;51.412;5.436;2023-11-19T09:59:15;29.48;;;4.60;;
73980;SDS011;62348;51.412;5.436;2023-11-19T10:01:41;37.13;;;6.55;;
73980;SDS011;62348;51.412;5.436;2023-11-19T10:04:08;35.72;;;6.53;;
73980;SDS011;62348;51.412;5.436;2023-11-19T10:06:34;28.63;;;6.47;;
73980;SDS011;62348;51.412;5.436;2023-11-19T10:09:00;24.17;;;5.78;;
73980;SDS011;62348;51.412;5.436;2023-11-19T10:11:26;32.17;;;5.70;;
73980;SDS011;62348;51.412;5.436;2023-11-19T10:13:52;32.40;;;6.40;;
73980;SDS011;62348;51.412;5.436;2023-11-19T10:16:19;21.55;;;4.88;;
73980;SDS011;62348;51.412;5.436;2023-11-19T10:18:45;28.83;;;5.65;;
73980;SDS011;62348;51.412;5.436;2023-11-19T10:21:14;37.90;;;6.07;;
73980;SDS011;62348;51.412;5.436;2023-11-19T10:23:48;29.83;;;5.05;;
73980;SDS011;62348;51.412;5.436;2023-11-19T10:26:18;23.25;;;5.55;;
73980;SDS011;62348;51.412;5.436;2023-11-19T10:28:48;28.25;;;5.38;;
73980;SDS011;62348;51.412;5.436;2023-11-19T10:31:14;29.73;;;6.68;;
73980;SDS011;62348;51.412;5.436;2023-11-19T10:33:40;29.42;;;6.25;;
73980;SDS011;62348;51.412;5.436;2023-11-19T10:36:07;30.25;;;5.88;;
73980;SDS011;62348;51.412;5.436;2023-11-19T10:38:33;26.65;;;5.78;;
73980;SDS011;62348;51.412;5.436;2023-11-19T10:40:59;23.38;;;6.22;;
73980;SDS011;62348;51.412;5.436;2023-11-19T10:43:24;36.40;;;6.40;;
73980;SDS011;62348;51.412;5.436;2023-11-19T10:45:50;34.08;;;6.00;;
73980;SDS011;62348;51.412;5.436;2023-11-19T10:48:16;27.10;;;4.35;;
73980;SDS011;62348;51.412;5.436;2023-11-19T10:50:42;23.45;;;5.60;;
73980;SDS011;62348;51.412;5.436;2023-11-19T10:53:10;30.92;;;5.63;;
73980;SDS011;62348;51.412;5.436;2023-11-19T10:55:40;19.33;;;5.20;;
73980;SDS011;62348;51.412;5.436;2023-11-19T10:58:09;25.15;;;5.38;;
73980;SDS011;62348;51.412;5.436;2023-11-19T11:00:45;25.58;;;4.72;;
73980;SDS011;62348;51.412;5.436;2023-11-19T11:03:21;29.17;;;4.83;;
73980;SDS011;62348;51.412;5.436;2023-11-19T11:05:50;19.35;;;5.38;;
73980;SDS011;62348;51.412;5.436;2023-11-19T11:08:17;26.52;;;5.53;;
73980;SDS011;62348;51.412;5.436;2023-11-19T11:10:56;28.98;;;6.55;;
73980;SDS011;62348;51.412;5.436;2023-11-19T11:13:25;24.60;;;5.05;;
73980;SDS011;62348;51.412;5.436;2023-11-19T11:15:55;31.98;;;4.80;;
73980;SDS011;62348;51.412;5.436;2023-11-19T11:18:23;21.85;;;5.43;;
73980;SDS011;62348;51.412;5.436;2023-11-19T11:20:49;27.20;;;4.72;;
73980;SDS011;62348;51.412;5.436;2023-11-19T11:23:45;20.00;;;4.57;;
73980;SDS011;62348;51.412;5.436;2023-11-19T11:29:23;19.75;;;4.40;;
73980;SDS011;62348;51.412;5.436;2023-11-19T11:32:08;20.88;;;4.22;;
73980;SDS011;62348;51.412;5.436;2023-11-19T11:37:26;21.67;;;5.00;;
73980;SDS011;62348;51.412;5.436;2023-11-19T11:40:02;29.52;;;5.03;;
73980;SDS011;62348;51.412;5.436;2023-11-19T11:42:35;19.15;;;4.75;;
73980;SDS011;62348;51.412;5.436;2023-11-19T11:45:02;22.70;;;4.93;;
73980;SDS011;62348;51.412;5.436;2023-11-19T11:50:10;21.10;;;5.68;;
73980;SDS011;62348;51.412;5.436;2023-11-19T11:55:36;23.23;;;4.35;;
73980;SDS011;62348;51.412;5.436;2023-11-19T11:58:17;21.50;;;5.30;;
73980;SDS011;62348;51.412;5.436;2023-11-19T12:00:43;27.48;;;5.10;;
73980;SDS011;62348;51.412;5.436;2023-11-19T12:03:10;26.63;;;5.05;;
73980;SDS011;62348;51.412;5.436;2023-11-19T12:05:43;28.02;;;4.88;;
73980;SDS011;62348;51.412;5.436;2023-11-19T12:08:10;23.17;;;5.93;;
73980;SDS011;62348;51.412;5.436;2023-11-19T12:10:46;24.63;;;5.07;;
73980;SDS011;62348;51.412;5.436;2023-11-19T12:13:14;26.73;;;5.15;;
73980;SDS011;62348;51.412;5.436;2023-11-19T12:18:21;24.48;;;5.38;;
73980;SDS011;62348;51.412;5.436;2023-11-19T12:20:49;25.30;;;5.63;;
73980;SDS011;62348;51.412;5.436;2023-11-19T12:23:15;21.90;;;5.00;;
73980;SDS011;62348;51.412;5.436;2023-11-19T12:25:41;22.98;;;4.75;;
73980;SDS011;62348;51.412;5.436;2023-11-19T12:28:11;26.63;;;4.43;;
73980;SDS011;62348;51.412;5.436;2023-11-19T12:30:37;24.25;;;4.90;;
73980;SDS011;62348;51.412;5.436;2023-11-19T12:33:07;20.63;;;4.63;;
73980;SDS011;62348;51.412;5.436;2023-11-19T12:35:38;30.08;;;6.60;;
73980;SDS011;62348;51.412;5.436;2023-11-19T12:38:07;21.98;;;4.68;;
73980;SDS011;62348;51.412;5.436;2023-11-19T12:40:33;27.10;;;6.15;;
73980;SDS011;62348;51.412;5.436;2023-11-19T12:42:58;22.05;;;5.15;;
73980;SDS011;62348;51.412;5.436;2023-11-19T12:45:25;28.35;;;4.85;;
73980;SDS011;62348;51.412;5.436;2023-11-19T12:48:06;23.17;;;5.10;;
73980;SDS011;62348;51.412;5.436;2023-11-19T12:50:49;22.75;;;4.57;;
73980;SDS011;62348;51.412;5.436;2023-11-19T12:53:20;24.25;;;6.35;;
73980;SDS011;62348;51.412;5.436;2023-11-19T12:55:46;19.92;;;5.30;;
73980;SDS011;62348;51.412;5.436;2023-11-19T12:58:28;17.75;;;4.63;;
73980;SDS011;62348;51.412;5.436;2023-11-19T13:01:01;20.55;;;5.25;;
73980;SDS011;62348;51.412;5.436;2023-11-19T13:03:31;23.63;;;5.03;;
73980;SDS011;62348;51.412;5.436;2023-11-19T13:06:02;22.35;;;5.15;;
73980;SDS011;62348;51.412;5.436;2023-11-19T13:08:29;21.50;;;5.28;;
73980;SDS011;62348;51.412;5.436;2023-11-19T13:11:02;19.80;;;5.07;;
73980;SDS011;62348;51.412;5.436;2023-11-19T13:13:28;25.33;;;5.53;;
73980;SDS011;62348;51.412;5.436;2023-11-19T13:16:01;22.60;;;4.45;;
73980;SDS011;62348;51.412;5.436;2023-11-19T13:18:28;21.85;;;4.55;;
73980;SDS011;62348;51.412;5.436;2023-11-19T13:20:53;22.45;;;4.75;;
73980;SDS011;62348;51.412;5.436;2023-11-19T13:23:22;19.58;;;4.57;;
73980;SDS011;62348;51.412;5.436;2023-11-19T13:25:47;18.98;;;4.57;;
73980;SDS011;62348;51.412;5.436;2023-11-19T13:28:12;20.25;;;5.43;;
73980;SDS011;62348;51.412;5.436;2023-11-19T13:30:38;20.00;;;4.68;;
73980;SDS011;62348;51.412;5.436;2023-11-19T13:33:03;19.40;;;4.03;;
73980;SDS011;62348;51.412;5.436;2023-11-19T13:35:28;20.85;;;5.40;;
73980;SDS011;62348;51.412;5.436;2023-11-19T13:37:54;20.63;;;5.97;;
73980;SDS011;62348;51.412;5.436;2023-11-19T13:40:20;21.90;;;3.92;;
73980;SDS011;62348;51.412;5.436;2023-11-19T13:42:47;22.42;;;4.05;;
73980;SDS011;62348;51.412;5.436;2023-11-19T13:45:13;26.30;;;5.90;;
73980;SDS011;62348;51.412;5.436;2023-11-19T13:47:39;16.75;;;4.68;;
73980;SDS011;62348;51.412;5.436;2023-11-19T13:50:08;22.20;;;4.50;;
73980;SDS011;62348;51.412;5.436;2023-11-19T13:52:34;19.08;;;4.13;;
73980;SDS011;62348;51.412;5.436;2023-11-19T13:55:02;22.63;;;4.35;;
73980;SDS011;62348;51.412;5.436;2023-11-19T13:57:29;16.67;;;4.80;;
73980;SDS011;62348;51.412;5.436;2023-11-19T13:59:56;20.75;;;4.43;;
73980;SDS011;62348;51.412;5.436;2023-11-19T14:02:22;17.58;;;4.45;;
73980;SDS011;62348;51.412;5.436;2023-11-19T14:04:47;21.15;;;4.70;;
73980;SDS011;62348;51.412;5.436;2023-11-19T14:07:13;24.25;;;5.32;;
73980;SDS011;62348;51.412;5.436;2023-11-19T14:09:38;19.88;;;4.35;;
73980;SDS011;62348;51.412;5.436;2023-11-19T14:12:03;19.55;;;4.82;;
73980;SDS011;62348;51.412;5.436;2023-11-19T14:14:29;16.15;;;4.32;;
73980;SDS011;62348;51.412;5.436;2023-11-19T14:16:54;18.27;;;4.13;;
73980;SDS011;62348;51.412;5.436;2023-11-19T14:19:20;18.30;;;4.40;;
73980;SDS011;62348;51.412;5.436;2023-11-19T14:21:46;19.85;;;3.85;;
73980;SDS011;62348;51.412;5.436;2023-11-19T14:24:12;17.00;;;5.28;;
73980;SDS011;62348;51.412;5.436;2023-11-19T14:26:38;19.95;;;4.28;;
73980;SDS011;62348;51.412;5.436;2023-11-19T14:29:03;20.58;;;4.68;;
73980;SDS011;62348;51.412;5.436;2023-11-19T14:31:28;22.75;;;4.13;;
73980;SDS011;62348;51.412;5.436;2023-11-19T14:33:54;19.20;;;4.57;;
73980;SDS011;62348;51.412;5.436;2023-11-19T14:36:19;20.33;;;4.10;;
73980;SDS011;62348;51.412;5.436;2023-11-19T14:38:45;23.27;;;4.28;;
73980;SDS011;62348;51.412;5.436;2023-11-19T14:41:11;17.00;;;4.85;;
73980;SDS011;62348;51.412;5.436;2023-11-19T14:43:36;21.00;;;4.65;;
73980;SDS011;62348;51.412;5.436;2023-11-19T14:46:04;15.90;;;3.45;;
73980;SDS011;62348;51.412;5.436;2023-11-19T14:48:29;20.27;;;4.65;;